createdAt,value
2023-04-18T00:00:33.637Z,87.29
2023-04-18T00:03:02.275Z,85.52
2023-04-18T00:05:30.559Z,84.10
2023-04-18T00:07:57.233Z,83.03
2023-04-18T00:10:23.959Z,82.17
2023-04-18T00:12:51.528Z,81.38
2023-04-18T00:15:18.537Z,81.11
2023-04-18T00:17:45.151Z,81.19
2023-04-18T00:20:12.676Z,81.70
2023-04-18T00:22:43.068Z,81.01
2023-04-18T00:25:11.047Z,80.21
2023-04-18T00:27:41.402Z,79.06
2023-04-18T00:30:09.002Z,77.38
2023-04-18T00:32:35.894Z,75.21
2023-04-18T00:35:02.592Z,74.22
2023-04-18T00:37:29.936Z,74.07
2023-04-18T00:39:56.542Z,73.10
2023-04-18T00:42:24.441Z,72.18
2023-04-18T00:44:51.132Z,71.42
2023-04-18T00:47:17.775Z,71.36
2023-04-18T00:49:44.999Z,70.85
2023-04-18T00:52:15.486Z,70.52
2023-04-18T00:54:43.847Z,70.22
2023-04-18T00:57:11.498Z,70.89
2023-04-18T00:59:38.780Z,70.21
2023-04-18T01:02:05.774Z,70.99
2023-04-18T01:04:32.642Z,72.37
2023-04-18T01:07:00.997Z,73.41
2023-04-18T01:09:28.424Z,75.12
2023-04-18T01:11:55.092Z,75.91
2023-04-18T01:14:21.912Z,76.35
2023-04-18T01:16:48.703Z,76.45
2023-04-18T01:19:19.161Z,76.39
2023-04-18T01:21:45.899Z,76.27
2023-04-18T01:24:15.205Z,75.53
2023-04-18T01:26:44.797Z,74.73
2023-04-18T01:29:12.163Z,74.06
2023-04-18T01:31:40.509Z,73.64
2023-04-18T01:34:08.189Z,73.92
2023-04-18T01:36:36.742Z,73.67
2023-04-18T01:39:03.543Z,73.63
2023-04-18T01:41:32.703Z,72.77
2023-04-18T01:43:59.710Z,71.84
2023-04-18T01:46:26.662Z,71.79
2023-04-18T01:48:53.250Z,72.07
2023-04-18T01:51:19.887Z,72.16
2023-04-18T01:53:46.470Z,72.21
2023-04-18T01:56:13.125Z,72.63
2023-04-18T01:58:41.582Z,71.91
2023-04-18T02:01:08.294Z,72.05
2023-04-18T02:03:35.079Z,72.35
2023-04-18T02:06:04.296Z,72.32
2023-04-18T02:08:32.986Z,72.96
2023-04-18T02:11:01.355Z,73.13
2023-04-18T02:13:28.591Z,73.06
2023-04-18T02:15:55.212Z,72.86
2023-04-18T02:18:24.734Z,73.51
2023-04-18T02:20:52.011Z,74.00
2023-04-18T02:23:19.027Z,74.10
2023-04-18T02:25:45.813Z,73.80
2023-04-18T02:28:13.888Z,73.51
2023-04-18T02:30:40.495Z,73.88
2023-04-18T02:33:07.132Z,74.36
2023-04-18T02:35:33.783Z,74.29
2023-04-18T02:38:00.658Z,74.87
2023-04-18T02:40:27.166Z,75.45
2023-04-18T02:42:53.707Z,75.20
2023-04-18T02:45:20.416Z,75.25
2023-04-18T02:47:54.476Z,75.45
2023-04-18T02:50:22.620Z,75.03
2023-04-18T02:52:49.209Z,75.45
2023-04-18T02:55:16.262Z,74.92
2023-04-18T02:57:43.196Z,74.92
2023-04-18T03:00:10.189Z,74.95
2023-04-18T03:02:36.934Z,74.86
2023-04-18T03:05:04.179Z,74.52
2023-04-18T03:07:31.104Z,75.38
2023-04-18T03:09:58.063Z,75.43
2023-04-18T03:12:24.717Z,75.40
2023-04-18T03:14:51.373Z,75.58
2023-04-18T03:17:18.725Z,75.39
2023-04-18T03:19:46.523Z,74.88
2023-04-18T03:22:14.035Z,75.20
2023-04-18T03:24:40.704Z,75.93
2023-04-18T03:27:07.490Z,75.64
2023-04-18T03:29:34.197Z,76.03
2023-04-18T03:32:00.868Z,76.27
2023-04-18T03:34:27.662Z,75.78
2023-04-18T03:36:54.324Z,75.70
2023-04-18T03:39:20.981Z,75.44
2023-04-18T03:41:47.623Z,75.21
2023-04-18T03:44:14.544Z,75.30
2023-04-18T03:46:41.687Z,75.78
2023-04-18T03:49:08.673Z,76.36
2023-04-18T03:51:47.292Z,75.90
2023-04-18T03:54:15.453Z,76.47
2023-04-18T03:56:42.359Z,76.25
2023-04-18T03:59:09.212Z,76.74
2023-04-18T04:01:35.864Z,76.27
2023-04-18T04:04:03.459Z,76.42
2023-04-18T04:06:31.488Z,76.62
2023-04-18T04:08:58.267Z,76.56
2023-04-18T04:11:24.873Z,76.53
2023-04-18T04:13:51.591Z,76.74
2023-04-18T04:16:18.326Z,76.55
2023-04-18T04:18:44.915Z,76.39
2023-04-18T04:21:11.491Z,76.59
2023-04-18T04:23:38.145Z,77.51
2023-04-18T04:26:04.858Z,76.64
2023-04-18T04:28:31.546Z,77.58
2023-04-18T04:30:58.183Z,76.45
2023-04-18T04:33:28.467Z,76.52
2023-04-18T04:35:56.600Z,76.83
2023-04-18T04:38:23.248Z,77.16
2023-04-18T04:40:50.130Z,77.20
2023-04-18T04:43:17.325Z,77.21
2023-04-18T04:45:44.706Z,77.35
2023-04-18T04:48:11.408Z,77.33
2023-04-18T04:50:40.242Z,77.31
2023-04-18T04:53:09.048Z,77.34
2023-04-18T04:55:35.992Z,77.92
2023-04-18T04:58:02.573Z,77.90
2023-04-18T05:00:29.250Z,77.77
2023-04-18T05:02:59.927Z,77.97
2023-04-18T05:05:26.716Z,77.73
2023-04-18T05:07:53.419Z,78.21
2023-04-18T05:10:20.114Z,78.50
2023-04-18T05:12:46.674Z,78.26
2023-04-18T05:15:16.263Z,78.94
2023-04-18T05:17:42.882Z,78.67
2023-04-18T05:20:10.145Z,78.85
2023-04-18T05:22:36.811Z,78.63
2023-04-18T05:25:03.513Z,78.63
2023-04-18T05:27:30.183Z,79.01
2023-04-18T05:29:56.770Z,79.63
2023-04-18T05:32:23.475Z,79.34
2023-04-18T05:34:50.069Z,79.12
2023-04-18T05:37:16.926Z,79.77
2023-04-18T05:39:43.466Z,79.92
2023-04-18T05:42:09.968Z,79.39
2023-04-18T05:44:37.208Z,79.43
2023-04-18T05:47:06.216Z,79.78
2023-04-18T05:49:32.779Z,80.01
2023-04-18T05:51:59.563Z,79.77
2023-04-18T05:54:26.189Z,80.30
2023-04-18T05:56:52.738Z,80.10
2023-04-18T05:59:20.661Z,79.95
2023-04-18T06:01:47.136Z,79.49
2023-04-18T06:04:14.181Z,79.66
2023-04-18T06:06:41.352Z,79.88
2023-04-18T06:09:07.893Z,79.88
2023-04-18T06:11:35.599Z,80.35
2023-04-18T06:14:02.850Z,79.99
2023-04-18T06:16:29.356Z,80.21
2023-04-18T06:18:56.028Z,79.11
2023-04-18T06:21:22.493Z,79.50
2023-04-18T06:23:48.998Z,80.34
2023-04-18T06:26:15.975Z,79.44
2023-04-18T06:28:42.539Z,80.91
2023-04-18T06:31:09.077Z,79.48
2023-04-18T06:33:37.680Z,79.78
2023-04-18T06:36:05.666Z,79.61
2023-04-18T06:38:32.546Z,79.07
2023-04-18T06:40:59.114Z,79.18
2023-04-18T06:43:25.722Z,78.69
2023-04-18T06:45:52.366Z,78.55
2023-04-18T06:48:18.902Z,78.67
2023-04-18T06:50:45.668Z,77.83
2023-04-18T06:53:12.283Z,78.23
2023-04-18T06:55:38.745Z,78.02
2023-04-18T06:58:05.850Z,79.19
2023-04-18T07:00:32.360Z,78.13
2023-04-18T07:02:58.952Z,77.97
2023-04-18T07:05:25.602Z,78.13
2023-04-18T07:07:52.057Z,78.35
2023-04-18T07:10:18.524Z,79.00
2023-04-18T07:12:45.049Z,78.07
2023-04-18T07:15:11.818Z,78.31
2023-04-18T07:17:38.437Z,78.07
2023-04-18T07:20:05.765Z,78.72
2023-04-18T07:22:32.297Z,77.57
2023-04-18T07:24:58.755Z,78.10
2023-04-18T07:27:25.951Z,78.50
2023-04-18T07:29:52.482Z,78.89
2023-04-18T07:32:18.981Z,78.13
2023-04-18T07:34:45.595Z,77.96
2023-04-18T07:37:14.629Z,78.37
2023-04-18T07:39:41.724Z,77.17
2023-04-18T07:42:08.480Z,76.74
2023-04-18T07:44:36.268Z,76.91
2023-04-18T07:47:03.350Z,76.55
2023-04-18T07:49:29.833Z,76.26
2023-04-18T07:51:56.319Z,75.81
2023-04-18T07:54:22.923Z,74.71
2023-04-18T07:56:49.455Z,75.06
2023-04-18T07:59:16.162Z,74.05
2023-04-18T08:01:42.915Z,74.64
2023-04-18T08:04:09.699Z,74.13
2023-04-18T08:06:36.329Z,76.16
2023-04-18T08:09:05.615Z,74.07
2023-04-18T08:11:33.589Z,72.58
2023-04-18T08:14:00.619Z,72.30
2023-04-18T08:16:27.688Z,71.57
2023-04-18T08:18:54.226Z,71.70
2023-04-18T08:21:20.834Z,71.07
2023-04-18T08:23:47.327Z,70.75
2023-04-18T08:26:13.852Z,70.01
2023-04-18T08:28:41.148Z,70.63
2023-04-18T08:31:12.006Z,70.05
2023-04-18T08:33:38.489Z,69.81
2023-04-18T08:36:05.346Z,69.72
2023-04-18T08:38:31.795Z,69.48
2023-04-18T08:40:58.287Z,69.47
2023-04-18T08:43:25.376Z,69.71
2023-04-18T08:45:57.529Z,70.72
2023-04-18T08:48:24.015Z,70.16
2023-04-18T08:50:51.274Z,72.07
2023-04-18T08:53:18.531Z,70.89
2023-04-18T08:55:46.815Z,71.86
2023-04-18T08:58:22.249Z,71.10
2023-04-18T09:00:53.166Z,70.64
2023-04-18T09:03:37.519Z,70.52
2023-04-18T09:06:09.044Z,70.15
2023-04-18T09:08:35.527Z,70.81
2023-04-18T09:11:28.786Z,70.99
2023-04-18T09:13:57.158Z,69.10
2023-04-18T09:16:23.695Z,70.02
2023-04-18T09:19:14.025Z,70.02
2023-04-18T09:21:42.754Z,68.92
2023-04-18T09:24:22.684Z,69.01
2023-04-18T09:26:49.985Z,70.05
2023-04-18T09:29:22.589Z,68.16
2023-04-18T09:31:57.613Z,68.15
2023-04-18T09:34:25.091Z,67.86
2023-04-18T09:37:11.872Z,69.11
2023-04-18T09:39:43.135Z,68.87
2023-04-18T09:42:10.874Z,69.08
2023-04-18T09:44:38.777Z,68.47
2023-04-18T09:47:07.770Z,69.09
2023-04-18T09:49:35.028Z,67.78
2023-04-18T09:52:05.270Z,69.00
2023-04-18T09:54:34.423Z,67.51
2023-04-18T09:57:04.160Z,67.20
2023-04-18T09:59:41.414Z,67.80
2023-04-18T10:02:15.565Z,67.37
2023-04-18T10:04:46.823Z,67.65
2023-04-18T10:07:16.760Z,67.21
2023-04-18T10:09:46.310Z,67.88
2023-04-18T10:12:13.519Z,68.62
2023-04-18T10:14:43.127Z,67.58
2023-04-18T10:17:11.762Z,67.91
2023-04-18T10:19:41.967Z,68.12
2023-04-18T10:22:08.581Z,68.29
2023-04-18T10:24:56.454Z,68.34
2023-04-18T10:27:47.564Z,67.98
2023-04-18T10:30:18.312Z,67.31
2023-04-18T10:32:47.705Z,67.69
2023-04-18T10:35:14.271Z,67.54
2023-04-18T10:37:51.390Z,68.05
2023-04-18T10:40:32.772Z,67.73
2023-04-18T10:42:59.546Z,65.94
2023-04-18T10:45:28.498Z,65.18
2023-04-18T10:48:29.578Z,66.25
2023-04-18T10:51:22.468Z,65.71
2023-04-18T10:53:53.493Z,64.91
2023-04-18T10:56:20.401Z,64.50
2023-04-18T10:58:52.169Z,63.03
2023-04-18T11:01:32.504Z,63.65
2023-04-18T11:04:00.413Z,63.34
2023-04-18T11:06:27.701Z,62.73
2023-04-18T11:09:12.523Z,63.61
2023-04-18T11:11:39.640Z,63.50
2023-04-18T11:14:06.188Z,63.95
2023-04-18T11:16:33.867Z,64.58
2023-04-18T11:19:00.628Z,64.49
2023-04-18T11:21:30.690Z,65.48
2023-04-18T11:23:57.844Z,64.99
2023-04-18T11:26:28.960Z,65.09
2023-04-18T11:28:58.733Z,65.22
2023-04-18T11:31:25.567Z,64.42
2023-04-18T11:33:52.564Z,65.70
2023-04-18T11:36:19.218Z,65.12
2023-04-18T11:38:46.102Z,65.79
2023-04-18T11:41:16.173Z,65.50
2023-04-18T11:43:46.923Z,65.86
2023-04-18T11:46:13.776Z,65.34
2023-04-18T11:48:42.548Z,64.81
2023-04-18T11:51:34.230Z,65.05
2023-04-18T11:54:00.676Z,65.94
2023-04-18T11:56:27.250Z,66.33
2023-04-18T11:58:53.906Z,65.42
2023-04-18T12:01:25.567Z,65.24
2023-04-18T12:04:01.394Z,66.76
2023-04-18T12:06:29.601Z,65.90
2023-04-18T12:09:00.545Z,65.54
2023-04-18T12:11:27.290Z,65.85
2023-04-18T12:13:56.586Z,64.72
2023-04-18T12:16:28.311Z,63.89
2023-04-18T12:19:01.266Z,65.19
2023-04-18T12:21:29.541Z,64.63
2023-04-18T12:23:57.334Z,64.67
2023-04-18T12:26:23.912Z,64.30
2023-04-18T12:28:51.393Z,64.91
2023-04-18T12:31:18.008Z,64.16
2023-04-18T12:33:44.584Z,65.04
2023-04-18T12:36:11.153Z,64.19
2023-04-18T12:38:37.724Z,65.03
2023-04-18T12:41:04.366Z,64.83
2023-04-18T12:43:30.839Z,65.03
2023-04-18T12:45:57.773Z,65.88
2023-04-18T12:48:24.426Z,65.60
2023-04-18T12:50:50.904Z,64.54
2023-04-18T12:53:17.477Z,65.20
2023-04-18T12:55:44.178Z,65.19
2023-04-18T12:58:10.760Z,65.78
2023-04-18T13:00:37.266Z,66.11
2023-04-18T13:03:04.103Z,66.10
2023-04-18T13:05:33.493Z,66.04
2023-04-18T13:10:31.193Z,66.28
2023-04-18T13:12:57.709Z,66.71
2023-04-18T13:15:24.446Z,67.13
2023-04-18T13:17:51.221Z,67.16
2023-04-18T13:20:19.190Z,67.73
2023-04-18T13:22:45.837Z,67.13
2023-04-18T13:25:12.475Z,67.15
2023-04-18T13:27:41.958Z,67.37
2023-04-18T13:30:10.769Z,67.44
2023-04-18T13:32:39.174Z,67.06
2023-04-18T13:35:08.326Z,67.35
2023-04-18T13:37:34.945Z,67.04
2023-04-18T13:40:01.568Z,66.06
2023-04-18T13:42:28.246Z,65.29
2023-04-18T13:44:54.761Z,65.20
2023-04-18T13:47:21.250Z,66.15
2023-04-18T13:49:47.761Z,66.39
2023-04-18T13:52:14.376Z,65.71
2023-04-18T13:54:41.462Z,64.87
2023-04-18T13:57:11.707Z,65.04
2023-04-18T13:59:40.520Z,64.89
2023-04-18T14:02:10.629Z,64.73
2023-04-18T14:04:38.089Z,64.59
2023-04-18T14:07:06.366Z,64.56
2023-04-18T14:09:33.314Z,63.42
2023-04-18T14:11:59.858Z,63.65
2023-04-18T14:14:26.440Z,62.53
2023-04-18T14:16:53.733Z,62.79
2023-04-18T14:19:20.573Z,62.31
2023-04-18T14:21:47.834Z,61.57
2023-04-18T14:24:14.504Z,62.01
2023-04-18T14:26:41.048Z,62.20
2023-04-18T14:29:07.571Z,63.08
2023-04-18T14:31:34.233Z,62.53
2023-04-18T14:34:00.805Z,62.11
2023-04-18T14:36:27.652Z,62.45
2023-04-18T14:38:55.043Z,62.56
2023-04-18T14:41:21.810Z,63.13
2023-04-18T14:43:48.769Z,62.63
2023-04-18T14:46:18.604Z,62.13
2023-04-18T14:48:46.432Z,62.30
2023-04-18T14:51:14.312Z,62.95
2023-04-18T14:53:40.911Z,62.15
2023-04-18T14:56:07.689Z,61.96
2023-04-18T14:58:34.222Z,61.53
2023-04-18T15:01:01.335Z,62.11
2023-04-18T15:03:28.031Z,62.05
2023-04-18T15:05:55.068Z,60.30
2023-04-18T15:08:22.057Z,61.13
2023-04-18T15:10:48.863Z,60.59
2023-04-18T15:13:15.936Z,60.82
2023-04-18T15:15:42.639Z,60.40
2023-04-18T15:18:10.350Z,60.42
2023-04-18T15:20:37.306Z,61.50
2023-04-18T15:23:03.834Z,60.75
2023-04-18T15:25:31.115Z,60.82
2023-04-18T15:27:58.412Z,59.94
2023-04-18T15:30:25.610Z,60.34
2023-04-18T15:32:52.382Z,59.97
2023-04-18T15:35:18.992Z,60.18
2023-04-18T15:37:45.495Z,59.81
2023-04-18T15:40:16.201Z,59.84
2023-04-18T15:42:43.674Z,60.51
2023-04-18T15:45:10.908Z,60.51
2023-04-18T15:47:38.730Z,59.30
2023-04-18T15:50:05.927Z,59.45
2023-04-18T15:52:32.416Z,59.21
2023-04-18T15:54:58.921Z,59.56
2023-04-18T15:57:25.445Z,59.76
2023-04-18T15:59:51.992Z,59.73
2023-04-18T16:02:18.649Z,59.66
2023-04-18T16:04:45.496Z,59.38
2023-04-18T16:07:12.246Z,59.52
2023-04-18T16:09:38.748Z,58.24
2023-04-18T16:12:07.119Z,58.90
2023-04-18T16:14:33.741Z,58.99
2023-04-18T16:17:00.519Z,59.13
2023-04-18T16:19:27.082Z,58.67
2023-04-18T16:21:53.567Z,59.11
2023-04-18T16:24:20.027Z,58.87
2023-04-18T16:26:46.576Z,59.29
2023-04-18T16:29:13.103Z,60.02
2023-04-18T16:31:39.700Z,59.75
2023-04-18T16:34:06.484Z,58.84
2023-04-18T16:36:34.752Z,59.33
2023-04-18T16:39:01.414Z,59.46
2023-04-18T16:41:28.129Z,59.76
2023-04-18T16:43:54.686Z,59.97
2023-04-18T16:46:21.223Z,59.74
2023-04-18T16:48:48.589Z,59.68
2023-04-18T16:51:16.185Z,59.82
2023-04-18T16:53:42.764Z,59.81
2023-04-18T16:56:09.362Z,59.39
2023-04-18T16:58:35.846Z,59.92
2023-04-18T17:01:02.476Z,60.24
2023-04-18T17:03:29.091Z,60.15
2023-04-18T17:05:56.010Z,60.48
2023-04-18T17:08:22.493Z,60.02
2023-04-18T17:10:52.689Z,60.01
2023-04-18T17:13:19.262Z,59.40
2023-04-18T17:15:46.123Z,59.42
2023-04-18T17:18:12.672Z,59.44
2023-04-18T17:20:39.165Z,59.58
2023-04-18T17:23:05.616Z,60.11
2023-04-18T17:25:32.153Z,60.74
2023-04-18T17:28:00.764Z,60.63
2023-04-18T17:30:27.430Z,60.62
2023-04-18T17:32:54.016Z,61.15
2023-04-18T17:35:21.118Z,61.78
2023-04-18T17:37:49.198Z,61.76
2023-04-18T17:40:15.837Z,61.61
2023-04-18T17:42:42.518Z,61.23
2023-04-18T17:45:12.390Z,61.33
2023-04-18T17:47:39.597Z,61.88
2023-04-18T17:50:07.168Z,61.98
2023-04-18T17:52:33.735Z,61.85
2023-04-18T17:55:01.622Z,61.60
2023-04-18T17:57:30.303Z,61.64
2023-04-18T17:59:56.975Z,61.08
2023-04-18T18:02:23.851Z,62.08
2023-04-18T18:04:51.572Z,61.31
2023-04-18T18:07:18.451Z,61.78
2023-04-18T18:09:45.637Z,61.83
2023-04-18T18:12:12.419Z,61.59
2023-04-18T18:14:40.605Z,61.70
2023-04-18T18:17:07.398Z,62.06
2023-04-18T18:19:37.320Z,62.47
2023-04-18T18:22:03.903Z,62.61
2023-04-18T18:24:30.665Z,62.44
2023-04-18T18:26:58.980Z,62.82
2023-04-18T18:29:25.815Z,62.95
2023-04-18T18:31:52.553Z,63.09
2023-04-18T18:34:21.202Z,63.16
2023-04-18T18:36:47.920Z,63.71
2023-04-18T18:39:16.531Z,63.33
2023-04-18T18:41:43.518Z,63.34
2023-04-18T18:44:10.324Z,63.60
2023-04-18T18:46:37.077Z,64.57
2023-04-18T18:49:04.010Z,64.51
2023-04-18T18:51:31.083Z,64.98
2023-04-18T18:53:59.211Z,64.89
2023-04-18T18:56:25.835Z,65.49
2023-04-18T18:58:57.256Z,65.41
2023-04-18T19:01:24.213Z,66.49
2023-04-18T19:03:51.097Z,67.12
2023-04-18T19:06:17.750Z,66.72
2023-04-18T19:11:29.929Z,67.71
2023-04-18T19:14:09.885Z,68.09
2023-04-18T19:22:30.964Z,67.48
2023-04-18T19:25:02.717Z,66.92
2023-04-18T19:27:29.626Z,66.79
2023-04-18T19:30:08.380Z,66.29
2023-04-18T19:32:56.355Z,65.97
2023-04-18T19:35:29.007Z,65.69
2023-04-18T19:38:03.578Z,66.01
2023-04-18T19:40:47.648Z,65.71
2023-04-18T19:44:24.531Z,65.91
2023-04-18T19:47:09.106Z,66.03
2023-04-18T19:49:38.950Z,66.09
2023-04-18T19:52:16.761Z,66.17
2023-04-18T20:12:20.095Z,66.73
2023-04-18T20:15:56.477Z,66.51
2023-04-18T20:18:44.719Z,67.12
2023-04-18T20:21:47.434Z,66.67
2023-04-18T20:27:46.419Z,67.00
2023-04-18T20:30:16.366Z,67.76
2023-04-18T20:32:59.991Z,67.09
2023-04-18T20:36:15.476Z,67.28
2023-04-18T20:38:45.319Z,67.58
2023-04-18T20:41:29.663Z,67.73
2023-04-18T20:44:45.862Z,66.97
2023-04-18T20:47:30.367Z,67.57
2023-04-18T20:50:10.906Z,68.07
2023-04-18T20:52:52.244Z,67.70
2023-04-18T20:55:33.556Z,68.30
2023-04-18T20:58:13.390Z,68.10
2023-04-18T21:00:42.906Z,68.05
2023-04-18T21:03:13.694Z,68.36
2023-04-18T21:05:50.419Z,68.14
2023-04-18T21:12:07.769Z,68.38
2023-04-18T21:14:41.291Z,68.39
2023-04-18T21:17:11.459Z,67.97
2023-04-18T21:19:45.692Z,68.24
2023-04-18T21:22:14.372Z,68.05
2023-04-18T21:24:41.024Z,68.15
2023-04-18T21:27:16.892Z,68.30
2023-04-18T21:29:47.896Z,68.13
2023-04-18T21:32:19.601Z,68.52
2023-04-18T21:35:02.030Z,68.75
2023-04-18T21:37:34.756Z,68.38
2023-04-18T21:40:05.077Z,69.13
2023-04-18T21:42:35.523Z,68.38
2023-04-18T21:45:07.990Z,68.75
2023-04-18T21:47:39.609Z,68.89
2023-04-18T21:50:09.681Z,68.81
2023-04-18T21:52:45.464Z,69.38
2023-04-18T21:55:15.590Z,69.31
2023-04-18T21:57:45.706Z,69.30
2023-04-18T22:00:16.090Z,69.15
2023-04-18T22:02:51.840Z,69.57
2023-04-18T22:05:20.141Z,69.71
2023-04-18T22:07:57.472Z,69.45
2023-04-18T22:10:32.224Z,69.61
2023-04-18T22:13:00.241Z,70.08
2023-04-18T22:15:32.862Z,69.68
2023-04-18T22:18:02.146Z,70.01
2023-04-18T22:20:29.578Z,70.38
2023-04-18T22:22:57.854Z,70.44
2023-04-18T22:25:24.605Z,70.38
2023-04-18T22:27:51.244Z,70.44
2023-04-18T22:30:17.919Z,70.68
2023-04-18T22:32:51.977Z,70.83
2023-04-18T22:35:36.580Z,70.97
2023-04-18T22:38:03.334Z,70.49
2023-04-18T22:40:51.063Z,71.09
2023-04-18T22:43:31.805Z,70.98
2023-04-18T22:46:02.083Z,71.30
2023-04-18T22:48:31.593Z,71.44
2023-04-18T22:51:04.356Z,72.19
2023-04-18T22:53:35.701Z,72.12
2023-04-18T22:56:05.147Z,71.99
2023-04-18T22:58:40.769Z,71.69
2023-04-18T23:01:14.659Z,72.26
2023-04-18T23:03:44.442Z,72.08
2023-04-18T23:06:17.377Z,72.64
2023-04-18T23:08:53.372Z,72.51
2023-04-18T23:11:20.058Z,72.69
2023-04-18T23:13:48.953Z,73.05
2023-04-18T23:16:31.440Z,72.82
2023-04-18T23:18:58.098Z,73.08
2023-04-18T23:21:24.833Z,73.11
2023-04-18T23:23:51.538Z,73.13
2023-04-18T23:26:23.817Z,73.57
2023-04-18T23:28:51.965Z,73.82
2023-04-18T23:31:23.756Z,73.58
2023-04-18T23:33:50.690Z,74.13
2023-04-18T23:36:19.571Z,73.60
2023-04-18T23:38:48.434Z,73.30
2023-04-18T23:41:15.182Z,73.89
2023-04-18T23:43:41.855Z,73.97
2023-04-18T23:46:08.573Z,74.47
2023-04-18T23:48:35.286Z,74.59
2023-04-18T23:51:22.027Z,74.51
2023-04-18T23:53:53.888Z,74.74
2023-04-18T23:56:23.308Z,74.99
2023-04-18T23:58:55.066Z,75.05
